Terminal Aerodrome Forecast
Issued by NWS Sioux Falls, SD

Home | Current Version | Previous Version | Graphics & Text | Print | Product List | Glossary Off
Versions: 1 2 3 4 5 6 7 8 9 10 11 12 13 14 15 16 17 18 19 20 21 22 23 24

189
FTUS43 KFSD 222320
TAFHON
TAF
KHON 222320Z 2300/2324 29011KT P6SM SCT120
     FM230200 32008KT P6SM VCTS BKN100CB
     FM230500 33009KT P6SM BKN050
     FM231200 36006KT P6SM VCTS OVC030CB
     FM231500 36008KT P6SM -SHRA VCTS OVC010CB
     FM231800 01009KT P6SM SHRA OVC010
     FM232100 35009KT 6SM SHRA OVC008=

USA.gov is the U.S. government's official web portal to all federal, state and local government web resources and services.